Qm Of London — ZCTD7 — position and weather

sailwx.info

Track history (hours):
 
Tides and Currents Weather Stations Pressure Air Temp Water Temp Dewpoint Dewpoint Depression Visibility Wind Speed Wind Dir Waves Ship Positions

Qm Of London

Last reported at 2017-Feb-25 11:32 UTC. Time now 2017-Feb-25 11:44 UTC.
Position N 44°25' E 008°55'.

Length 50 m; draft 2.7 m.

Type: Pleasure craft. MMSI: 319780000.

Date/timePositionNaut miles runAvg speedWind from/ knotsBaromVisibWave heightAir tempDewpointWater temp
2017-Feb-25 11:32N 44°25' E 008°55'0 0.0
2017-Feb-25 10:32N 44°25' E 008°55'0 0.0
2017-Feb-25 09:33N 44°25' E 008°55'0 0.0
2017-Feb-25 08:31N 44°25' E 008°55'0 0.0
2017-Feb-25 07:28N 44°25' E 008°55'0 0.0
2017-Feb-25 06:26N 44°25' E 008°55'0 0.0
2017-Feb-25 05:33N 44°25' E 008°55'0 0.0
2017-Feb-25 04:33N 44°25' E 008°55'0 0.0
2017-Feb-25 03:31N 44°25' E 008°55'0 0.0
2017-Feb-25 02:32N 44°25' E 008°55'0 0.0
2017-Feb-25 01:29N 44°25' E 008°55'0 0.0
2017-Feb-25 00:27N 44°25' E 008°55'0 0.0
2017-Feb-24 23:25N 44°25' E 008°55'0 0.0
2017-Feb-24 22:25N 44°25' E 008°55'0 0.0
2017-Feb-24 21:32N 44°25' E 008°55'0 0.0
2017-Feb-24 20:33N 44°25' E 008°55'0 0.0
2017-Feb-24 19:30N 44°25' E 008°55'0 0.0
2017-Feb-24 18:25N 44°25' E 008°55'0 0.0
2017-Feb-24 17:29N 44°25' E 008°55'0 0.0
2017-Feb-24 16:26N 44°25' E 008°55'0 0.0
2017-Feb-24 15:33N 44°25' E 008°55'0 0.0
2017-Feb-24 14:31N 44°25' E 008°55'0 0.0
2017-Feb-24 13:31N 44°25' E 008°55'0 0.0
2017-Feb-24 12:32N 44°25' E 008°55'0 0.0
2017-Feb-24 11:30N 44°25' E 008°55'0 0.0
2017-Feb-24 10:27N 44°25' E 008°55'0 0.0
2017-Feb-24 09:25N 44°25' E 008°55'0 0.0
2017-Feb-24 08:32N 44°25' E 008°55'0 0.0
2017-Feb-24 07:32N 44°25' E 008°55'0 0.0
2017-Feb-24 06:33N 44°25' E 008°55'0 0.0
2017-Feb-24 05:31N 44°25' E 008°55'0 0.0
2017-Feb-24 04:28N 44°25' E 008°55'0 0.0
2017-Feb-24 03:26N 44°25' E 008°55'0 0.0
2017-Feb-24 02:33N 44°25' E 008°55'0 0.0
2017-Feb-24 01:33N 44°25' E 008°55'0 0.0
2017-Feb-24 00:31N 44°25' E 008°55'0 0.0
2017-Feb-23 23:32N 44°25' E 008°55'0 0.0
2017-Feb-23 22:29N 44°25' E 008°55'0 0.0
2017-Feb-23 21:27N 44°25' E 008°55'0 0.0
2017-Feb-23 20:28N 44°25' E 008°55'0 0.0
2017-Feb-23 19:25N 44°25' E 008°55'0 0.0
2017-Feb-23 18:32N 44°25' E 008°55'0 0.0
2017-Feb-23 17:33N 44°25' E 008°55'0 0.0
2017-Feb-23 16:30N 44°25' E 008°55'0 0.1
2017-Feb-23 15:33N 44°25' E 008°55'1 0.2
2017-Feb-23 09:29N 44°24' E 008°56'0 0.0
2017-Feb-23 08:30N 44°24' E 008°56'0 0.0
2017-Feb-23 07:27N 44°24' E 008°56'0 0.0
2017-Feb-23 06:13N 44°24' E 008°56'0 0.0
2017-Feb-23 05:32N 44°24' E 008°56'0 0.0
2017-Feb-23 04:09N 44°24' E 008°56'0 0.0
2017-Feb-23 03:33N 44°24' E 008°56'0 0.0
2017-Feb-23 02:31N 44°24' E 008°56'0 0.0
2017-Feb-23 01:25N 44°24' E 008°56'0 0.0
2017-Feb-23 00:26N 44°24' E 008°56'0 0.0
2017-Feb-22 23:27N 44°24' E 008°56'0 0.0
2017-Feb-22 22:33N 44°24' E 008°56'0 0.0
2017-Feb-22 21:31N 44°24' E 008°56'0 0.0
2017-Feb-22 20:29N 44°24' E 008°56'0 0.0
2017-Feb-22 19:27N 44°24' E 008°56'0 0.0
2017-Feb-22 18:27N 44°24' E 008°56'0 0.0
2017-Feb-22 17:16N 44°24' E 008°56'0 0.0
2017-Feb-22 16:26N 44°24' E 008°56'0 0.0
2017-Feb-22 15:32N 44°24' E 008°56'0 0.1
2017-Feb-22 14:33N 44°24' E 008°56'1010.4
2017-Feb-22 13:33N 44°13' E 008°59'10 9.6
2017-Feb-22 12:33N 44°23' E 008°54'2 1.6
2017-Feb-22 11:34N 44°23' E 008°57'2 1.8
2017-Feb-22 10:33N 44°25' E 008°55'0 0.0
2017-Feb-22 09:30N 44°25' E 008°55'0 0.0
2017-Feb-22 08:31N 44°25' E 008°55'0 0.0
2017-Feb-22 07:29N 44°25' E 008°55'0 0.0
2017-Feb-22 06:26N 44°25' E 008°55'0 0.0
2017-Feb-22 05:24N 44°25' E 008°55'0 0.0
2017-Feb-22 04:33N 44°25' E 008°55'0 0.0
2017-Feb-22 03:31N 44°25' E 008°55'0 0.0
2017-Feb-22 02:32N 44°25' E 008°55'0 0.0
2017-Feb-22 01:30N 44°25' E 008°55'0 0.0
2017-Feb-22 00:27N 44°25' E 008°55'0 0.0
2017-Feb-21 23:25N 44°25' E 008°55'0 0.0
2017-Feb-21 22:32N 44°25' E 008°55'0 0.0
2017-Feb-21 21:32N 44°25' E 008°55'0 0.0
2017-Feb-21 20:33N 44°25' E 008°55'0 0.0
2017-Feb-21 19:31N 44°25' E 008°55'0 0.0
2017-Feb-21 18:28N 44°25' E 008°55'0 0.0
2017-Feb-21 17:26N 44°25' E 008°55'0 0.0
2017-Feb-21 16:33N 44°25' E 008°55'0 0.0
2017-Feb-21 15:18N 44°25' E 008°55'0 0.0
2017-Feb-21 14:31N 44°25' E 008°55'0 0.0
2017-Feb-21 13:32N 44°25' E 008°55'0 0.0
2017-Feb-21 12:29N 44°25' E 008°55'0 0.0
2017-Feb-21 11:27N 44°25' E 008°55'0 0.0
2017-Feb-21 10:34N 44°25' E 008°55'0 0.0
2017-Feb-21 09:22N 44°25' E 008°55'0 0.0
2017-Feb-21 08:32N 44°25' E 008°55'0 0.0
2017-Feb-21 07:33N 44°25' E 008°55'0 0.0
2017-Feb-21 03:29N 44°25' E 008°55'0 0.0
2017-Feb-21 02:27N 44°25' E 008°55'0 0.0
2017-Feb-21 01:25N 44°25' E 008°55'0 0.0
2017-Feb-21 00:31N 44°25' E 008°55'0 0.0
2017-Feb-20 23:32N 44°25' E 008°55'0 0.0
2017-Feb-20 22:27N 44°25' E 008°55'0 0.0
2017-Feb-20 21:30N 44°25' E 008°55'0 0.0
2017-Feb-20 20:28N 44°25' E 008°55'0 0.0
2017-Feb-20 19:26N 44°25' E 008°55'0 0.0
2017-Feb-20 18:32N 44°25' E 008°55'0 0.0
2017-Feb-20 17:33N 44°25' E 008°55'0 0.0
2017-Feb-20 16:31N 44°25' E 008°55'0 0.0
2017-Feb-20 15:31N 44°25' E 008°55'0 0.0
2017-Feb-20 14:29N 44°25' E 008°55'0 0.0
2017-Feb-20 13:27N 44°25' E 008°55'0 0.0
2017-Feb-20 12:33N 44°25' E 008°55'0 0.0
2017-Feb-20 11:25N 44°25' E 008°55'0 0.0
2017-Feb-20 10:32N 44°25' E 008°55'0 0.0
2017-Feb-20 09:29N 44°25' E 008°55'0 0.0
2017-Feb-20 08:30N 44°25' E 008°55'0 0.0
2017-Feb-20 07:13N 44°25' E 008°55'0 0.0
2017-Feb-20 06:25N 44°25' E 008°55'0 0.0
2017-Feb-20 05:26N 44°25' E 008°55'0 0.0
2017-Feb-20 04:33N 44°25' E 008°55'0 0.0
2017-Feb-20 03:33N 44°25' E 008°55'0 0.0
2017-Feb-20 02:31N 44°25' E 008°55'0 0.0
2017-Feb-20 01:29N 44°25' E 008°55'0 0.0
2017-Feb-20 00:29N 44°25' E 008°55'0 0.0
2017-Feb-19 23:27N 44°25' E 008°55'0 0.0
2017-Feb-19 22:25N 44°25' E 008°55'0 0.0
2017-Feb-19 21:31N 44°25' E 008°55'0 0.0
2017-Feb-19 20:32N 44°25' E 008°55'0 0.0
2017-Feb-19 19:30N 44°25' E 008°55'0 0.0
2017-Feb-19 18:30N 44°25' E 008°55'0 0.0
2017-Feb-19 17:28N 44°25' E 008°55'0 0.0
2017-Feb-19 16:26N 44°25' E 008°55'0 0.0
2017-Feb-19 15:32N 44°25' E 008°55'0 0.0
2017-Feb-19 14:30N 44°25' E 008°55'0 0.0
2017-Feb-19 13:19N 44°25' E 008°55'0 0.0
2017-Feb-19 12:31N 44°25' E 008°55'0 0.0
2017-Feb-19 11:29N 44°25' E 008°55'0 0.0
2017-Feb-19 10:27N 44°25' E 008°55'0 0.0
2017-Feb-19 09:24N 44°25' E 008°55'0 0.0
2017-Feb-19 08:22N 44°25' E 008°55'0 0.0
2017-Feb-19 07:32N 44°25' E 008°55'0 0.0
2017-Feb-19 06:32N 44°25' E 008°55'0 0.0
2017-Feb-19 05:27N 44°25' E 008°55'0 0.0
2017-Feb-19 04:28N 44°25' E 008°55'0 0.0
2017-Feb-19 03:25N 44°25' E 008°55'0 0.0
2017-Feb-19 02:23N 44°25' E 008°55'0 0.0
2017-Feb-19 01:33N 44°25' E 008°55'0 0.0
2017-Feb-19 00:33N 44°25' E 008°55'0 0.0
2017-Feb-18 23:28N 44°25' E 008°55'0 0.0
2017-Feb-18 22:29N 44°25' E 008°55'0 0.0
2017-Feb-18 21:26N 44°25' E 008°55'0 0.0
2017-Feb-18 20:27N 44°25' E 008°55'0 0.0
2017-Feb-18 19:25N 44°25' E 008°55'0 0.0
2017-Feb-18 18:31N 44°25' E 008°55'0 0.0
2017-Feb-18 17:32N 44°25' E 008°55'0 0.0
2017-Feb-18 16:30N 44°25' E 008°55'0 0.0
2017-Feb-18 15:30N 44°25' E 008°55'0 0.0
2017-Feb-18 14:28N 44°25' E 008°55'0 0.0
2017-Feb-18 13:26N 44°25' E 008°55'0 0.0
2017-Feb-18 12:32N 44°25' E 008°55'0 0.0
2017-Feb-18 11:33N 44°25' E 008°55'0 0.0
2017-Feb-18 10:31N 44°25' E 008°55'0 0.0
2017-Feb-18 09:31N 44°25' E 008°55'0 0.0
2017-Feb-18 08:29N 44°25' E 008°55'0 0.0
2017-Feb-18 07:27N 44°25' E 008°55'0 0.0
2017-Feb-18 06:33N 44°25' E 008°55'0 0.0
2017-Feb-18 05:31N 44°25' E 008°55'0 0.0
2017-Feb-18 04:32N 44°25' E 008°55'0 0.0
2017-Feb-18 03:32N 44°25' E 008°55'0 0.0
2017-Feb-18 02:30N 44°25' E 008°55'0 0.0
2017-Feb-18 01:28N 44°25' E 008°55'0 0.0
2017-Feb-18 00:26N 44°25' E 008°55'0 0.0
2017-Feb-17 23:23N 44°25' E 008°55'0 0.0
2017-Feb-17 22:33N 44°25' E 008°55'0 0.0
2017-Feb-17 21:33N 44°25' E 008°55'0 0.0
2017-Feb-17 20:31N 44°25' E 008°55'0 0.0
2017-Feb-17 19:29N 44°25' E 008°55'0 0.0
2017-Feb-17 18:26N 44°25' E 008°55'0 0.0
2017-Feb-17 17:27N 44°25' E 008°55'0 0.0
2017-Feb-17 16:22N 44°25' E 008°55'0 0.0
2017-Feb-17 15:31N 44°25' E 008°55'0 0.0
2017-Feb-17 14:32N 44°25' E 008°55'0 0.0
2017-Feb-17 13:30N 44°25' E 008°55'0 0.0
2017-Feb-17 12:27N 44°25' E 008°55'0 0.0
2017-Feb-17 11:28N 44°25' E 008°55'0 0.0
2017-Feb-17 10:23N 44°25' E 008°55'0 0.0
2017-Feb-17 09:32N 44°25' E 008°55'0 0.0
2017-Feb-17 08:33N 44°25' E 008°55'0 0.0
2017-Feb-17 07:31N 44°25' E 008°55'0 0.0
2017-Feb-17 06:31N 44°25' E 008°55'0 0.0
2017-Feb-17 05:29N 44°25' E 008°55'0 0.0
2017-Feb-17 04:27N 44°25' E 008°55'0 0.0
2017-Feb-17 03:33N 44°25' E 008°55'0 0.0
2017-Feb-17 02:31N 44°25' E 008°55'0 0.0
2017-Feb-17 01:32N 44°25' E 008°55'0 0.0
2017-Feb-17 00:32N 44°25' E 008°55'0 0.0
2017-Feb-16 23:30N 44°25' E 008°55'0 0.0
2017-Feb-16 22:28N 44°25' E 008°55'0 0.0
2017-Feb-16 21:26N 44°25' E 008°55'0 0.0
2017-Feb-16 20:32N 44°25' E 008°55'0 0.0
2017-Feb-16 19:24N 44°25' E 008°55'0 0.0
2017-Feb-16 18:33N 44°25' E 008°55'0 0.0
2017-Feb-16 17:31N 44°25' E 008°55'0 0.0
2017-Feb-16 16:29N 44°25' E 008°55'0 0.0
2017-Feb-16 15:27N 44°25' E 008°55'0 0.0
2017-Feb-16 14:27N 44°25' E 008°55'0 0.0
2017-Feb-16 13:22N 44°25' E 008°55'0 0.0
2017-Feb-16 12:31N 44°25' E 008°55'0 0.0
2017-Feb-16 11:32N 44°25' E 008°55'0 0.0
2017-Feb-16 10:30N 44°25' E 008°55'0 0.0
2017-Feb-16 09:28N 44°25' E 008°55'0 0.0
2017-Feb-16 08:28N 44°25' E 008°55'0 0.0
2017-Feb-16 07:26N 44°25' E 008°55'0 0.0
2017-Feb-16 06:33N 44°25' E 008°55'0 0.0
2017-Feb-16 05:33N 44°25' E 008°55'0 0.0
2017-Feb-16 04:31N 44°25' E 008°55'0 0.0
2017-Feb-16 03:32N 44°25' E 008°55'0 0.0
2017-Feb-16 02:29N 44°25' E 008°55'0 0.0
2017-Feb-16 01:27N 44°25' E 008°55'0 0.0
2017-Feb-16 00:34N 44°25' E 008°55'0 0.0
2017-Feb-15 23:31N 44°25' E 008°55'0 0.0
2017-Feb-15 22:32N 44°25' E 008°55'0 0.0
2017-Feb-15 21:33N 44°25' E 008°55'0 0.0
2017-Feb-15 20:30N 44°25' E 008°55'0 0.0
2017-Feb-15 19:28N 44°25' E 008°55'0 0.0
2017-Feb-15 18:26N 44°25' E 008°55'0 0.0
2017-Feb-15 17:23N 44°25' E 008°55'0 0.0
2017-Feb-15 16:33N 44°25' E 008°55'0 0.0
2017-Feb-15 15:31N 44°25' E 008°55'0 0.0
2017-Feb-15 14:31N 44°25' E 008°55'0 0.0
2017-Feb-15 13:32N 44°25' E 008°55'0 0.0
2017-Feb-15 12:30N 44°25' E 008°55'  
Track history (hours):
 
Tides and Currents Weather Stations Pressure Air Temp Water Temp Dewpoint Dewpoint Depression Visibility Wind Speed Wind Dir Waves Ship Positions

Qm Of London

Last reported at 2017-Feb-25 11:32 UTC. Time now 2017-Feb-25 11:44 UTC.
Position N 44°25' E 008°55'.

Length 50 m; draft 2.7 m.

Type: Pleasure craft. MMSI: 319780000.

Date/timePositionNaut miles runAvg speedWind from/ knotsBaromVisibWave heightAir tempDewpointWater temp
2017-Feb-25 11:32N 44°25' E 008°55'0 0.0
2017-Feb-25 10:32N 44°25' E 008°55'0 0.0
2017-Feb-25 09:33N 44°25' E 008°55'0 0.0
2017-Feb-25 08:31N 44°25' E 008°55'0 0.0
2017-Feb-25 07:28N 44°25' E 008°55'0 0.0
2017-Feb-25 06:26N 44°25' E 008°55'0 0.0
2017-Feb-25 05:33N 44°25' E 008°55'0 0.0
2017-Feb-25 04:33N 44°25' E 008°55'0 0.0
2017-Feb-25 03:31N 44°25' E 008°55'0 0.0
2017-Feb-25 02:32N 44°25' E 008°55'0 0.0
2017-Feb-25 01:29N 44°25' E 008°55'0 0.0
2017-Feb-25 00:27N 44°25' E 008°55'0 0.0
2017-Feb-24 23:25N 44°25' E 008°55'0 0.0
2017-Feb-24 22:25N 44°25' E 008°55'0 0.0
2017-Feb-24 21:32N 44°25' E 008°55'0 0.0
2017-Feb-24 20:33N 44°25' E 008°55'0 0.0
2017-Feb-24 19:30N 44°25' E 008°55'0 0.0
2017-Feb-24 18:25N 44°25' E 008°55'0 0.0
2017-Feb-24 17:29N 44°25' E 008°55'0 0.0
2017-Feb-24 16:26N 44°25' E 008°55'0 0.0
2017-Feb-24 15:33N 44°25' E 008°55'0 0.0
2017-Feb-24 14:31N 44°25' E 008°55'0 0.0
2017-Feb-24 13:31N 44°25' E 008°55'0 0.0
2017-Feb-24 12:32N 44°25' E 008°55'0 0.0
2017-Feb-24 11:30N 44°25' E 008°55'0 0.0
2017-Feb-24 10:27N 44°25' E 008°55'0 0.0
2017-Feb-24 09:25N 44°25' E 008°55'0 0.0
2017-Feb-24 08:32N 44°25' E 008°55'0 0.0
2017-Feb-24 07:32N 44°25' E 008°55'0 0.0
2017-Feb-24 06:33N 44°25' E 008°55'0 0.0
2017-Feb-24 05:31N 44°25' E 008°55'0 0.0
2017-Feb-24 04:28N 44°25' E 008°55'0 0.0
2017-Feb-24 03:26N 44°25' E 008°55'0 0.0
2017-Feb-24 02:33N 44°25' E 008°55'0 0.0
2017-Feb-24 01:33N 44°25' E 008°55'0 0.0
2017-Feb-24 00:31N 44°25' E 008°55'0 0.0
2017-Feb-23 23:32N 44°25' E 008°55'0 0.0
2017-Feb-23 22:29N 44°25' E 008°55'0 0.0
2017-Feb-23 21:27N 44°25' E 008°55'0 0.0
2017-Feb-23 20:28N 44°25' E 008°55'0 0.0
2017-Feb-23 19:25N 44°25' E 008°55'0 0.0
2017-Feb-23 18:32N 44°25' E 008°55'0 0.0
2017-Feb-23 17:33N 44°25' E 008°55'0 0.0
2017-Feb-23 16:30N 44°25' E 008°55'0 0.1
2017-Feb-23 15:33N 44°25' E 008°55'1 0.2
2017-Feb-23 09:29N 44°24' E 008°56'0 0.0
2017-Feb-23 08:30N 44°24' E 008°56'0 0.0
2017-Feb-23 07:27N 44°24' E 008°56'0 0.0
2017-Feb-23 06:13N 44°24' E 008°56'0 0.0
2017-Feb-23 05:32N 44°24' E 008°56'0 0.0
2017-Feb-23 04:09N 44°24' E 008°56'0 0.0
2017-Feb-23 03:33N 44°24' E 008°56'0 0.0
2017-Feb-23 02:31N 44°24' E 008°56'0 0.0
2017-Feb-23 01:25N 44°24' E 008°56'0 0.0
2017-Feb-23 00:26N 44°24' E 008°56'0 0.0
2017-Feb-22 23:27N 44°24' E 008°56'0 0.0
2017-Feb-22 22:33N 44°24' E 008°56'0 0.0
2017-Feb-22 21:31N 44°24' E 008°56'0 0.0
2017-Feb-22 20:29N 44°24' E 008°56'0 0.0
2017-Feb-22 19:27N 44°24' E 008°56'0 0.0
2017-Feb-22 18:27N 44°24' E 008°56'0 0.0
2017-Feb-22 17:16N 44°24' E 008°56'0 0.0
2017-Feb-22 16:26N 44°24' E 008°56'0 0.0
2017-Feb-22 15:32N 44°24' E 008°56'0 0.1
2017-Feb-22 14:33N 44°24' E 008°56'1010.4
2017-Feb-22 13:33N 44°13' E 008°59'10 9.6
2017-Feb-22 12:33N 44°23' E 008°54'2 1.6
2017-Feb-22 11:34N 44°23' E 008°57'2 1.8
2017-Feb-22 10:33N 44°25' E 008°55'0 0.0
2017-Feb-22 09:30N 44°25' E 008°55'0 0.0
2017-Feb-22 08:31N 44°25' E 008°55'0 0.0
2017-Feb-22 07:29N 44°25' E 008°55'0 0.0
2017-Feb-22 06:26N 44°25' E 008°55'0 0.0
2017-Feb-22 05:24N 44°25' E 008°55'0 0.0
2017-Feb-22 04:33N 44°25' E 008°55'0 0.0
2017-Feb-22 03:31N 44°25' E 008°55'0 0.0
2017-Feb-22 02:32N 44°25' E 008°55'0 0.0
2017-Feb-22 01:30N 44°25' E 008°55'0 0.0
2017-Feb-22 00:27N 44°25' E 008°55'0 0.0
2017-Feb-21 23:25N 44°25' E 008°55'0 0.0
2017-Feb-21 22:32N 44°25' E 008°55'0 0.0
2017-Feb-21 21:32N 44°25' E 008°55'0 0.0
2017-Feb-21 20:33N 44°25' E 008°55'0 0.0
2017-Feb-21 19:31N 44°25' E 008°55'0 0.0
2017-Feb-21 18:28N 44°25' E 008°55'0 0.0
2017-Feb-21 17:26N 44°25' E 008°55'0 0.0
2017-Feb-21 16:33N 44°25' E 008°55'0 0.0
2017-Feb-21 15:18N 44°25' E 008°55'0 0.0
2017-Feb-21 14:31N 44°25' E 008°55'0 0.0
2017-Feb-21 13:32N 44°25' E 008°55'0 0.0
2017-Feb-21 12:29N 44°25' E 008°55'0 0.0
2017-Feb-21 11:27N 44°25' E 008°55'0 0.0
2017-Feb-21 10:34N 44°25' E 008°55'0 0.0
2017-Feb-21 09:22N 44°25' E 008°55'0 0.0
2017-Feb-21 08:32N 44°25' E 008°55'0 0.0
2017-Feb-21 07:33N 44°25' E 008°55'0 0.0
2017-Feb-21 03:29N 44°25' E 008°55'0 0.0
2017-Feb-21 02:27N 44°25' E 008°55'0 0.0
2017-Feb-21 01:25N 44°25' E 008°55'0 0.0
2017-Feb-21 00:31N 44°25' E 008°55'0 0.0
2017-Feb-20 23:32N 44°25' E 008°55'0 0.0
2017-Feb-20 22:27N 44°25' E 008°55'0 0.0
2017-Feb-20 21:30N 44°25' E 008°55'0 0.0
2017-Feb-20 20:28N 44°25' E 008°55'0 0.0
2017-Feb-20 19:26N 44°25' E 008°55'0 0.0
2017-Feb-20 18:32N 44°25' E 008°55'0 0.0
2017-Feb-20 17:33N 44°25' E 008°55'0 0.0
2017-Feb-20 16:31N 44°25' E 008°55'0 0.0
2017-Feb-20 15:31N 44°25' E 008°55'0 0.0
2017-Feb-20 14:29N 44°25' E 008°55'0 0.0
2017-Feb-20 13:27N 44°25' E 008°55'0 0.0
2017-Feb-20 12:33N 44°25' E 008°55'0 0.0
2017-Feb-20 11:25N 44°25' E 008°55'0 0.0
2017-Feb-20 10:32N 44°25' E 008°55'0 0.0
2017-Feb-20 09:29N 44°25' E 008°55'0 0.0
2017-Feb-20 08:30N 44°25' E 008°55'0 0.0
2017-Feb-20 07:13N 44°25' E 008°55'0 0.0
2017-Feb-20 06:25N 44°25' E 008°55'0 0.0
2017-Feb-20 05:26N 44°25' E 008°55'0 0.0
2017-Feb-20 04:33N 44°25' E 008°55'0 0.0
2017-Feb-20 03:33N 44°25' E 008°55'0 0.0
2017-Feb-20 02:31N 44°25' E 008°55'0 0.0
2017-Feb-20 01:29N 44°25' E 008°55'0 0.0
2017-Feb-20 00:29N 44°25' E 008°55'0 0.0
2017-Feb-19 23:27N 44°25' E 008°55'0 0.0
2017-Feb-19 22:25N 44°25' E 008°55'0 0.0
2017-Feb-19 21:31N 44°25' E 008°55'0 0.0
2017-Feb-19 20:32N 44°25' E 008°55'0 0.0
2017-Feb-19 19:30N 44°25' E 008°55'0 0.0
2017-Feb-19 18:30N 44°25' E 008°55'0 0.0
2017-Feb-19 17:28N 44°25' E 008°55'0 0.0
2017-Feb-19 16:26N 44°25' E 008°55'0 0.0
2017-Feb-19 15:32N 44°25' E 008°55'0 0.0
2017-Feb-19 14:30N 44°25' E 008°55'0 0.0
2017-Feb-19 13:19N 44°25' E 008°55'0 0.0
2017-Feb-19 12:31N 44°25' E 008°55'0 0.0
2017-Feb-19 11:29N 44°25' E 008°55'0 0.0
2017-Feb-19 10:27N 44°25' E 008°55'0 0.0
2017-Feb-19 09:24N 44°25' E 008°55'0 0.0
2017-Feb-19 08:22N 44°25' E 008°55'0 0.0
2017-Feb-19 07:32N 44°25' E 008°55'0 0.0
2017-Feb-19 06:32N 44°25' E 008°55'0 0.0
2017-Feb-19 05:27N 44°25' E 008°55'0 0.0
2017-Feb-19 04:28N 44°25' E 008°55'0 0.0
2017-Feb-19 03:25N 44°25' E 008°55'0 0.0
2017-Feb-19 02:23N 44°25' E 008°55'0 0.0
2017-Feb-19 01:33N 44°25' E 008°55'0 0.0
2017-Feb-19 00:33N 44°25' E 008°55'0 0.0
2017-Feb-18 23:28N 44°25' E 008°55'0 0.0
2017-Feb-18 22:29N 44°25' E 008°55'0 0.0
2017-Feb-18 21:26N 44°25' E 008°55'0 0.0
2017-Feb-18 20:27N 44°25' E 008°55'0 0.0
2017-Feb-18 19:25N 44°25' E 008°55'0 0.0
2017-Feb-18 18:31N 44°25' E 008°55'0 0.0
2017-Feb-18 17:32N 44°25' E 008°55'0 0.0
2017-Feb-18 16:30N 44°25' E 008°55'0 0.0
2017-Feb-18 15:30N 44°25' E 008°55'0 0.0
2017-Feb-18 14:28N 44°25' E 008°55'0 0.0
2017-Feb-18 13:26N 44°25' E 008°55'0 0.0
2017-Feb-18 12:32N 44°25' E 008°55'0 0.0
2017-Feb-18 11:33N 44°25' E 008°55'0 0.0
2017-Feb-18 10:31N 44°25' E 008°55'0 0.0
2017-Feb-18 09:31N 44°25' E 008°55'0 0.0
2017-Feb-18 08:29N 44°25' E 008°55'0 0.0
2017-Feb-18 07:27N 44°25' E 008°55'0 0.0
2017-Feb-18 06:33N 44°25' E 008°55'0 0.0
2017-Feb-18 05:31N 44°25' E 008°55'0 0.0
2017-Feb-18 04:32N 44°25' E 008°55'0 0.0
2017-Feb-18 03:32N 44°25' E 008°55'0 0.0
2017-Feb-18 02:30N 44°25' E 008°55'0 0.0
2017-Feb-18 01:28N 44°25' E 008°55'0 0.0
2017-Feb-18 00:26N 44°25' E 008°55'0 0.0
2017-Feb-17 23:23N 44°25' E 008°55'0 0.0
2017-Feb-17 22:33N 44°25' E 008°55'0 0.0
2017-Feb-17 21:33N 44°25' E 008°55'0 0.0
2017-Feb-17 20:31N 44°25' E 008°55'0 0.0
2017-Feb-17 19:29N 44°25' E 008°55'0 0.0
2017-Feb-17 18:26N 44°25' E 008°55'0 0.0
2017-Feb-17 17:27N 44°25' E 008°55'0 0.0
2017-Feb-17 16:22N 44°25' E 008°55'0 0.0
2017-Feb-17 15:31N 44°25' E 008°55'0 0.0
2017-Feb-17 14:32N 44°25' E 008°55'0 0.0
2017-Feb-17 13:30N 44°25' E 008°55'0 0.0
2017-Feb-17 12:27N 44°25' E 008°55'0 0.0
2017-Feb-17 11:28N 44°25' E 008°55'0 0.0
2017-Feb-17 10:23N 44°25' E 008°55'0 0.0
2017-Feb-17 09:32N 44°25' E 008°55'0 0.0
2017-Feb-17 08:33N 44°25' E 008°55'0 0.0
2017-Feb-17 07:31N 44°25' E 008°55'0 0.0
2017-Feb-17 06:31N 44°25' E 008°55'0 0.0
2017-Feb-17 05:29N 44°25' E 008°55'0 0.0
2017-Feb-17 04:27N 44°25' E 008°55'0 0.0
2017-Feb-17 03:33N 44°25' E 008°55'0 0.0
2017-Feb-17 02:31N 44°25' E 008°55'0 0.0
2017-Feb-17 01:32N 44°25' E 008°55'0 0.0
2017-Feb-17 00:32N 44°25' E 008°55'0 0.0
2017-Feb-16 23:30N 44°25' E 008°55'0 0.0
2017-Feb-16 22:28N 44°25' E 008°55'0 0.0
2017-Feb-16 21:26N 44°25' E 008°55'0 0.0
2017-Feb-16 20:32N 44°25' E 008°55'0 0.0
2017-Feb-16 19:24N 44°25' E 008°55'0 0.0
2017-Feb-16 18:33N 44°25' E 008°55'0 0.0
2017-Feb-16 17:31N 44°25' E 008°55'0 0.0
2017-Feb-16 16:29N 44°25' E 008°55'0 0.0
2017-Feb-16 15:27N 44°25' E 008°55'0 0.0
2017-Feb-16 14:27N 44°25' E 008°55'0 0.0
2017-Feb-16 13:22N 44°25' E 008°55'0 0.0
2017-Feb-16 12:31N 44°25' E 008°55'0 0.0
2017-Feb-16 11:32N 44°25' E 008°55'0 0.0
2017-Feb-16 10:30N 44°25' E 008°55'0 0.0
2017-Feb-16 09:28N 44°25' E 008°55'0 0.0
2017-Feb-16 08:28N 44°25' E 008°55'0 0.0
2017-Feb-16 07:26N 44°25' E 008°55'0 0.0
2017-Feb-16 06:33N 44°25' E 008°55'0 0.0
2017-Feb-16 05:33N 44°25' E 008°55'0 0.0
2017-Feb-16 04:31N 44°25' E 008°55'0 0.0
2017-Feb-16 03:32N 44°25' E 008°55'0 0.0
2017-Feb-16 02:29N 44°25' E 008°55'0 0.0
2017-Feb-16 01:27N 44°25' E 008°55'0 0.0
2017-Feb-16 00:34N 44°25' E 008°55'0 0.0
2017-Feb-15 23:31N 44°25' E 008°55'0 0.0
2017-Feb-15 22:32N 44°25' E 008°55'0 0.0
2017-Feb-15 21:33N 44°25' E 008°55'0 0.0
2017-Feb-15 20:30N 44°25' E 008°55'0 0.0
2017-Feb-15 19:28N 44°25' E 008°55'0 0.0
2017-Feb-15 18:26N 44°25' E 008°55'0 0.0
2017-Feb-15 17:23N 44°25' E 008°55'0 0.0
2017-Feb-15 16:33N 44°25' E 008°55'0 0.0
2017-Feb-15 15:31N 44°25' E 008°55'0 0.0
2017-Feb-15 14:31N 44°25' E 008°55'0 0.0
2017-Feb-15 13:32N 44°25' E 008°55'0 0.0
2017-Feb-15 12:30N 44°25' E 008°55'  

Dump ship's entire track history